Signe Bulker — 9V3502 — position and weather

sailwx.info

Track history (hours):
 
Tides and Currents Weather Stations Pressure Air Temp Water Temp Dewpoint Dewpoint Depression Visibility Wind Speed Wind Dir Waves Ship Positions

Signe Bulker

Last reported at 2017-Oct-10 15:58 UTC. Time now 2017-Oct-19 22:09 UTC.
Position S 36°24' E 175°15'.
Warning: this ship's position is 9 days out of date.

Length 180 m; draft 6 m.

Type: Cargo ship. MMSI: 563636000.

Date/timePositionNaut miles runAvg speedWind from/ knotsBaromVisibWave heightAir tempDewpointWater temp
2017-Oct-10 15:58S 36°24' E 175°15'813.0
2017-Oct-10 15:23S 36°30' E 175°10'513.2
2017-Oct-10 15:00S 36°33' E 175°05'1313.0
2017-Oct-10 14:00S 36°42' E 174°53'4 8.9
2017-Oct-10 13:30S 36°45' E 174°50'5 9.0
2017-Oct-10 12:59S 36°50' E 174°50'2 0.1
2017-Oct-08 17:00S 36°51' E 174°47'0 0.0
2017-Oct-08 16:30S 36°51' E 174°47'0 0.0
2017-Oct-08 15:48S 36°51' E 174°47'0 0.0
2017-Oct-08 15:30S 36°51' E 174°47'0 0.0
2017-Oct-08 14:18S 36°51' E 174°47'0 0.0
2017-Oct-08 13:54S 36°51' E 174°47'0 0.0
2017-Oct-08 12:06S 36°51' E 174°47'0 0.1
2017-Oct-08 08:44S 36°50' E 174°47'2 6.9
2017-Oct-08 08:24S 36°50' E 174°50'511.7
2017-Oct-08 08:00S 36°45' E 174°50'4 8.0
2017-Oct-08 07:30S 36°42' E 174°53'4 8.6
2017-Oct-08 07:00S 36°39' E 174°57'4 8.7
2017-Oct-08 06:30S 36°38' E 175°02'3 4.7
2017-Oct-08 05:57S 36°37' E 175°05'1 1.4
2017-Oct-08 05:30S 36°36' E 175°04'1 1.5
2017-Oct-08 05:00S 36°35' E 175°04'1 1.5
2017-Oct-08 04:29S 36°35' E 175°04'1 1.5
2017-Oct-08 03:59S 36°34' E 175°04'1 1.4
2017-Oct-08 03:24S 36°33' E 175°03'1 2.4
2017-Oct-08 03:00S 36°32' E 175°03'4 9.1
2017-Oct-08 02:30S 36°28' E 175°02'612.6
2017-Oct-08 02:00S 36°22' E 174°59'713.1
2017-Oct-08 01:27S 36°15' E 174°57'  
Track history (hours):
 
Tides and Currents Weather Stations Pressure Air Temp Water Temp Dewpoint Dewpoint Depression Visibility Wind Speed Wind Dir Waves Ship Positions

Signe Bulker

Last reported at 2017-Oct-10 15:58 UTC. Time now 2017-Oct-19 22:09 UTC.
Position S 36°24' E 175°15'.
Warning: this ship's position is 9 days out of date.

Length 180 m; draft 6 m.

Type: Cargo ship. MMSI: 563636000.

Date/timePositionNaut miles runAvg speedWind from/ knotsBaromVisibWave heightAir tempDewpointWater temp
2017-Oct-10 15:58S 36°24' E 175°15'813.0
2017-Oct-10 15:23S 36°30' E 175°10'513.2
2017-Oct-10 15:00S 36°33' E 175°05'1313.0
2017-Oct-10 14:00S 36°42' E 174°53'4 8.9
2017-Oct-10 13:30S 36°45' E 174°50'5 9.0
2017-Oct-10 12:59S 36°50' E 174°50'2 0.1
2017-Oct-08 17:00S 36°51' E 174°47'0 0.0
2017-Oct-08 16:30S 36°51' E 174°47'0 0.0
2017-Oct-08 15:48S 36°51' E 174°47'0 0.0
2017-Oct-08 15:30S 36°51' E 174°47'0 0.0
2017-Oct-08 14:18S 36°51' E 174°47'0 0.0
2017-Oct-08 13:54S 36°51' E 174°47'0 0.0
2017-Oct-08 12:06S 36°51' E 174°47'0 0.1
2017-Oct-08 08:44S 36°50' E 174°47'2 6.9
2017-Oct-08 08:24S 36°50' E 174°50'511.7
2017-Oct-08 08:00S 36°45' E 174°50'4 8.0
2017-Oct-08 07:30S 36°42' E 174°53'4 8.6
2017-Oct-08 07:00S 36°39' E 174°57'4 8.7
2017-Oct-08 06:30S 36°38' E 175°02'3 4.7
2017-Oct-08 05:57S 36°37' E 175°05'1 1.4
2017-Oct-08 05:30S 36°36' E 175°04'1 1.5
2017-Oct-08 05:00S 36°35' E 175°04'1 1.5
2017-Oct-08 04:29S 36°35' E 175°04'1 1.5
2017-Oct-08 03:59S 36°34' E 175°04'1 1.4
2017-Oct-08 03:24S 36°33' E 175°03'1 2.4
2017-Oct-08 03:00S 36°32' E 175°03'4 9.1
2017-Oct-08 02:30S 36°28' E 175°02'612.6
2017-Oct-08 02:00S 36°22' E 174°59'713.1
2017-Oct-08 01:27S 36°15' E 174°57'  

Dump ship's entire track history